sensor_id;sensor_type;location;lat;lon;timestamp;pressure;altitude;pressure_sealevel;temperature;humidity
78745;BME280;68064;53.100;8.824;2023-02-28T00:00:37;103244.59;;;2.83;77.87
78745;BME280;68064;53.100;8.824;2023-02-28T00:01:39;103252.69;;;2.88;77.86
78745;BME280;68064;53.100;8.824;2023-02-28T00:02:42;103251.78;;;2.87;77.84
78745;BME280;68064;53.100;8.824;2023-02-28T00:03:43;103255.22;;;2.88;78.19
78745;BME280;68064;53.100;8.824;2023-02-28T00:04:44;103250.72;;;2.85;77.97
78745;BME280;68064;53.100;8.824;2023-02-28T00:05:47;103249.66;;;2.83;78.14
78745;BME280;68064;53.100;8.824;2023-02-28T00:06:48;103252.19;;;2.83;77.91
78745;BME280;68064;53.100;8.824;2023-02-28T00:07:51;103251.28;;;2.83;78.26
78745;BME280;68064;53.100;8.824;2023-02-28T00:08:52;103249.47;;;2.82;78.45
78745;BME280;68064;53.100;8.824;2023-02-28T00:09:56;103255.28;;;2.81;77.76
78745;BME280;68064;53.100;8.824;2023-02-28T00:11:01;103237.94;;;2.77;78.35
78745;BME280;68064;53.100;8.824;2023-02-28T00:12:02;103241.38;;;2.77;78.08
78745;BME280;68064;53.100;8.824;2023-02-28T00:13:05;103248.56;;;2.81;78.62
78745;BME280;68064;53.100;8.824;2023-02-28T00:14:07;103253.63;;;2.81;78.71
78745;BME280;68064;53.100;8.824;2023-02-28T00:15:09;103252.00;;;2.82;78.66
78745;BME280;68064;53.100;8.824;2023-02-28T00:16:13;103247.69;;;2.81;78.55
78745;BME280;68064;53.100;8.824;2023-02-28T00:17:15;103243.72;;;2.76;78.02
78745;BME280;68064;53.100;8.824;2023-02-28T00:18:16;103248.22;;;2.78;78.04
78745;BME280;68064;53.100;8.824;2023-02-28T00:19:17;103249.13;;;2.79;78.53
78745;BME280;68064;53.100;8.824;2023-02-28T00:20:19;103234.19;;;2.73;78.49
78745;BME280;68064;53.100;8.824;2023-02-28T00:21:22;103256.00;;;2.80;78.18
78745;BME280;68064;53.100;8.824;2023-02-28T00:22:23;103248.22;;;2.78;78.08
78745;BME280;68064;53.100;8.824;2023-02-28T00:23:25;103248.97;;;2.77;78.51
78745;BME280;68064;53.100;8.824;2023-02-28T00:24:25;103254.03;;;2.77;78.06
78745;BME280;68064;53.100;8.824;2023-02-28T00:25:27;103243.56;;;2.74;78.66
78745;BME280;68064;53.100;8.824;2023-02-28T00:26:28;103253.13;;;2.77;78.37
78745;BME280;68064;53.100;8.824;2023-02-28T00:27:29;103255.81;;;2.78;78.42
78745;BME280;68064;53.100;8.824;2023-02-28T00:28:30;103257.44;;;2.78;78.73
78745;BME280;68064;53.100;8.824;2023-02-28T00:29:32;103263.25;;;2.77;78.77
78745;BME280;68064;53.100;8.824;2023-02-28T00:30:33;103254.75;;;2.76;78.35
78745;BME280;68064;53.100;8.824;2023-02-28T00:31:37;103248.78;;;2.76;78.49
78745;BME280;68064;53.100;8.824;2023-02-28T00:32:38;103260.53;;;2.75;78.51
78745;BME280;68064;53.100;8.824;2023-02-28T00:33:39;103258.22;;;2.70;77.95
78745;BME280;68064;53.100;8.824;2023-02-28T00:34:41;103252.25;;;2.69;78.15
78745;BME280;68064;53.100;8.824;2023-02-28T00:35:42;103260.19;;;2.72;78.67
78745;BME280;68064;53.100;8.824;2023-02-28T00:36:45;103258.56;;;2.73;78.35
78745;BME280;68064;53.100;8.824;2023-02-28T00:37:49;103251.34;;;2.68;78.75
78745;BME280;68064;53.100;8.824;2023-02-28T00:38:51;103261.81;;;2.72;78.46
78745;BME280;68064;53.100;8.824;2023-02-28T00:39:52;103252.59;;;2.72;78.95
78745;BME280;68064;53.100;8.824;2023-02-28T00:40:53;103255.13;;;2.72;78.46
78745;BME280;68064;53.100;8.824;2023-02-28T00:41:54;103255.69;;;2.70;78.19
78745;BME280;68064;53.100;8.824;2023-02-28T00:42:55;103249.72;;;2.69;78.51
78745;BME280;68064;53.100;8.824;2023-02-28T00:43:56;103258.56;;;2.73;78.49
78745;BME280;68064;53.100;8.824;2023-02-28T00:44:58;103242.84;;;2.68;78.57
78745;BME280;68064;53.100;8.824;2023-02-28T00:45:59;103260.19;;;2.72;78.63
78745;BME280;68064;53.100;8.824;2023-02-28T00:47:00;103255.13;;;2.72;78.67
78745;BME280;68064;53.100;8.824;2023-02-28T00:48:01;103253.16;;;2.70;78.65
78745;BME280;68064;53.100;8.824;2023-02-28T00:49:03;103260.03;;;2.71;78.64
78745;BME280;68064;53.100;8.824;2023-02-28T00:50:05;103252.44;;;2.71;78.39
78745;BME280;68064;53.100;8.824;2023-02-28T00:51:07;103245.03;;;2.65;78.17
78745;BME280;68064;53.100;8.824;2023-02-28T00:52:09;103257.31;;;2.69;78.66
78745;BME280;68064;53.100;8.824;2023-02-28T00:53:10;103257.31;;;2.69;78.51
78745;BME280;68064;53.100;8.824;2023-02-28T00:54:11;103252.97;;;2.68;78.53
78745;BME280;68064;53.100;8.824;2023-02-28T00:55:13;103262.38;;;2.69;78.97
78745;BME280;68064;53.100;8.824;2023-02-28T00:56:15;103257.50;;;2.71;78.66
78745;BME280;68064;53.100;8.824;2023-02-28T00:57:17;103261.66;;;2.70;78.88
78745;BME280;68064;53.100;8.824;2023-02-28T00:58:18;103258.03;;;2.68;78.85
78745;BME280;68064;53.100;8.824;2023-02-28T00:59:20;103245.03;;;2.65;78.94
78745;BME280;68064;53.100;8.824;2023-02-28T01:00:21;103257.16;;;2.67;78.42
78745;BME280;68064;53.100;8.824;2023-02-28T01:01:25;103256.81;;;2.64;78.44
78745;BME280;68064;53.100;8.824;2023-02-28T01:02:32;103255.72;;;2.62;78.71
78745;BME280;68064;53.100;8.824;2023-02-28T01:03:33;103253.38;;;2.64;78.87
78745;BME280;68064;53.100;8.824;2023-02-28T01:04:35;103249.41;;;2.59;78.57
78745;BME280;68064;53.100;8.824;2023-02-28T01:05:36;103259.34;;;2.64;78.86
78745;BME280;68064;53.100;8.824;2023-02-28T01:06:37;103255.91;;;2.64;78.53
78745;BME280;68064;53.100;8.824;2023-02-28T01:07:43;103261.88;;;2.64;78.89
78745;BME280;68064;53.100;8.824;2023-02-28T01:08:44;103257.53;;;2.63;78.76
78745;BME280;68064;53.100;8.824;2023-02-28T01:09:45;103246.53;;;2.56;78.67
78745;BME280;68064;53.100;8.824;2023-02-28T01:10:46;103262.59;;;2.63;78.49
78745;BME280;68064;53.100;8.824;2023-02-28T01:11:50;103258.09;;;2.61;78.73
78745;BME280;68064;53.100;8.824;2023-02-28T01:12:51;103262.41;;;2.62;78.39
78745;BME280;68064;53.100;8.824;2023-02-28T01:13:53;103262.59;;;2.63;79.05
78745;BME280;68064;53.100;8.824;2023-02-28T01:14:53;103265.81;;;2.62;78.28
78745;BME280;68064;53.100;8.824;2023-02-28T01:15:55;103266.56;;;2.61;78.72
78745;BME280;68064;53.100;8.824;2023-02-28T01:16:56;103274.16;;;2.61;78.82
78745;BME280;68064;53.100;8.824;2023-02-28T01:17:58;103271.44;;;2.60;78.27
78745;BME280;68064;53.100;8.824;2023-02-28T01:18:59;103260.28;;;2.58;78.23
78745;BME280;68064;53.100;8.824;2023-02-28T01:20:00;103268.91;;;2.60;78.37
78745;BME280;68064;53.100;8.824;2023-02-28T01:21:03;103266.22;;;2.58;78.31
78745;BME280;68064;53.100;8.824;2023-02-28T01:22:06;103270.38;;;2.58;79.07
78745;BME280;68064;53.100;8.824;2023-02-28T01:23:09;103265.84;;;2.55;78.22
78745;BME280;68064;53.100;8.824;2023-02-28T01:24:10;103275.44;;;2.58;79.18
78745;BME280;68064;53.100;8.824;2023-02-28T01:25:11;103264.06;;;2.54;78.49
78745;BME280;68064;53.100;8.824;2023-02-28T01:26:14;103261.53;;;2.54;78.60
78745;BME280;68064;53.100;8.824;2023-02-28T01:27:17;103272.72;;;2.56;78.42
78745;BME280;68064;53.100;8.824;2023-02-28T01:28:19;103269.13;;;2.54;78.42
78745;BME280;68064;53.100;8.824;2023-02-28T01:29:20;103266.41;;;2.53;78.20
78745;BME280;68064;53.100;8.824;2023-02-28T01:30:21;103271.47;;;2.53;78.88
78745;BME280;68064;53.100;8.824;2023-02-28T01:31:23;103266.25;;;2.51;78.27
78745;BME280;68064;53.100;8.824;2023-02-28T01:32:25;103267.88;;;2.51;78.48
78745;BME280;68064;53.100;8.824;2023-02-28T01:33:26;103266.06;;;2.50;79.19
78745;BME280;68064;53.100;8.824;2023-02-28T01:34:27;103265.16;;;2.49;79.05
78745;BME280;68064;53.100;8.824;2023-02-28T01:35:31;103265.16;;;2.49;79.29
78745;BME280;68064;53.100;8.824;2023-02-28T01:36:32;103266.25;;;2.51;78.59
78745;BME280;68064;53.100;8.824;2023-02-28T01:37:34;103271.31;;;2.51;79.26
78745;BME280;68064;53.100;8.824;2023-02-28T01:38:37;103263.72;;;2.51;78.35
78745;BME280;68064;53.100;8.824;2023-02-28T01:39:38;103263.53;;;2.50;78.36
78745;BME280;68064;53.100;8.824;2023-02-28T01:40:39;103273.09;;;2.52;79.19
78745;BME280;68064;53.100;8.824;2023-02-28T01:41:40;103269.50;;;2.50;79.03
78745;BME280;68064;53.100;8.824;2023-02-28T01:42:41;103268.78;;;2.51;78.86
78745;BME280;68064;53.100;8.824;2023-02-28T01:44:00;103271.13;;;2.50;78.71
78745;BME280;68064;53.100;8.824;2023-02-28T01:45:18;103272.94;;;2.51;78.69
78745;BME280;68064;53.100;8.824;2023-02-28T01:46:20;103267.69;;;2.49;78.80
78745;BME280;68064;53.100;8.824;2023-02-28T01:47:22;103271.31;;;2.51;78.60
78745;BME280;68064;53.100;8.824;2023-02-28T01:48:26;103269.50;;;2.50;78.99
78745;BME280;68064;53.100;8.824;2023-02-28T01:49:28;103274.56;;;2.50;78.89
78745;BME280;68064;53.100;8.824;2023-02-28T01:50:33;103269.34;;;2.49;78.80
78745;BME280;68064;53.100;8.824;2023-02-28T01:51:41;103269.34;;;2.49;78.80
78745;BME280;68064;53.100;8.824;2023-02-28T01:52:43;103264.09;;;2.47;78.94
78745;BME280;68064;53.100;8.824;2023-02-28T01:53:47;103265.00;;;2.48;78.36
78745;BME280;68064;53.100;8.824;2023-02-28T01:54:52;103259.41;;;2.43;78.66
78745;BME280;68064;53.100;8.824;2023-02-28T01:55:54;103264.47;;;2.43;78.66
78745;BME280;68064;53.100;8.824;2023-02-28T01:56:57;103270.06;;;2.48;78.65
78745;BME280;68064;53.100;8.824;2023-02-28T01:58:02;103269.16;;;2.47;79.03
78745;BME280;68064;53.100;8.824;2023-02-28T01:59:05;103268.25;;;2.47;79.19
78745;BME280;68064;53.100;8.824;2023-02-28T02:00:08;103268.25;;;2.47;78.59
78745;BME280;68064;53.100;8.824;2023-02-28T02:01:09;103268.97;;;2.46;79.11
78745;BME280;68064;53.100;8.824;2023-02-28T02:02:11;103263.75;;;2.44;78.46
78745;BME280;68064;53.100;8.824;2023-02-28T02:03:13;103258.34;;;2.41;79.07
78745;BME280;68064;53.100;8.824;2023-02-28T02:04:15;103266.28;;;2.44;78.61
78745;BME280;68064;53.100;8.824;2023-02-28T02:05:17;103270.63;;;2.45;78.53
78745;BME280;68064;53.100;8.824;2023-02-28T02:06:20;103263.03;;;2.45;78.57
78745;BME280;68064;53.100;8.824;2023-02-28T02:07:21;103272.25;;;2.45;78.53
78745;BME280;68064;53.100;8.824;2023-02-28T02:08:26;103267.00;;;2.43;78.84
78745;BME280;68064;53.100;8.824;2023-02-28T02:09:30;103262.13;;;2.45;79.21
78745;BME280;68064;53.100;8.824;2023-02-28T02:10:34;103261.22;;;2.44;78.95
78745;BME280;68064;53.100;8.824;2023-02-28T02:11:36;103260.50;;;2.45;79.30
78745;BME280;68064;53.100;8.824;2023-02-28T02:12:51;103246.44;;;2.40;79.04
78745;BME280;68064;53.100;8.824;2023-02-28T02:14:09;103249.72;;;2.39;78.72
78745;BME280;68064;53.100;8.824;2023-02-28T02:15:13;103256.88;;;2.43;78.74
78745;BME280;68064;53.100;8.824;2023-02-28T02:16:29;103266.09;;;2.43;78.98
78745;BME280;68064;53.100;8.824;2023-02-28T02:17:38;103259.25;;;2.42;78.73
78745;BME280;68064;53.100;8.824;2023-02-28T02:18:43;103261.22;;;2.44;78.77
78745;BME280;68064;53.100;8.824;2023-02-28T02:21:49;103261.78;;;2.42;79.31
78745;BME280;68064;53.100;8.824;2023-02-28T02:23:29;103259.06;;;2.40;78.57
78745;BME280;68064;53.100;8.824;2023-02-28T02:24:58;103254.75;;;2.39;78.85
78745;BME280;68064;53.100;8.824;2023-02-28T02:26:21;103259.06;;;2.40;78.59
78745;BME280;68064;53.100;8.824;2023-02-28T02:27:45;103259.97;;;2.41;78.70
78745;BME280;68064;53.100;8.824;2023-02-28T02:29:21;103255.09;;;2.42;79.19
78745;BME280;68064;53.100;8.824;2023-02-28T02:30:54;103258.34;;;2.41;78.50
78745;BME280;68064;53.100;8.824;2023-02-28T02:32:14;103246.78;;;2.36;79.03
78745;BME280;68064;53.100;8.824;2023-02-28T02:33:43;103255.63;;;2.40;78.74
78745;BME280;68064;53.100;8.824;2023-02-28T02:34:58;103252.03;;;2.38;78.85
78745;BME280;68064;53.100;8.824;2023-02-28T02:36:06;103225.75;;;2.22;78.71
78745;BME280;68064;53.100;8.824;2023-02-28T02:37:25;103251.13;;;2.37;78.99
78745;BME280;68064;53.100;8.824;2023-02-28T02:38:32;103226.81;;;2.24;78.86
78745;BME280;68064;53.100;8.824;2023-02-28T02:39:42;103229.53;;;2.25;78.96
78745;BME280;68064;53.100;8.824;2023-02-28T02:40:53;103249.88;;;2.34;78.98
78745;BME280;68064;53.100;8.824;2023-02-28T02:42:01;103247.53;;;2.35;78.94
78745;BME280;68064;53.100;8.824;2023-02-28T02:43:07;103241.97;;;2.31;78.75
78745;BME280;68064;53.100;8.824;2023-02-28T02:44:14;103252.59;;;2.35;79.33
78745;BME280;68064;53.100;8.824;2023-02-28T02:45:24;103253.31;;;2.34;78.90
78745;BME280;68064;53.100;8.824;2023-02-28T02:46:30;103211.38;;;2.13;79.00
78745;BME280;68064;53.100;8.824;2023-02-28T02:47:35;103256.75;;;2.35;78.57
78745;BME280;68064;53.100;8.824;2023-02-28T02:48:38;103250.28;;;2.30;78.85
78745;BME280;68064;53.100;8.824;2023-02-28T02:49:44;103255.84;;;2.34;78.68
78745;BME280;68064;53.100;8.824;2023-02-28T02:50:54;103240.69;;;2.27;79.07
78745;BME280;68064;53.100;8.824;2023-02-28T02:51:57;103257.09;;;2.38;78.73
78745;BME280;68064;53.100;8.824;2023-02-28T02:53:02;103248.25;;;2.34;78.36
78745;BME280;68064;53.100;8.824;2023-02-28T02:54:08;103256.56;;;2.33;78.64
78745;BME280;68064;53.100;8.824;2023-02-28T02:55:12;103256.53;;;2.40;77.71
78745;BME280;68064;53.100;8.824;2023-02-28T02:56:15;103252.41;;;2.34;77.95
78745;BME280;68064;53.100;8.824;2023-02-28T02:57:22;103256.19;;;2.37;77.83
78745;BME280;68064;53.100;8.824;2023-02-28T02:58:29;103250.06;;;2.35;78.22
78745;BME280;68064;53.100;8.824;2023-02-28T02:59:33;103249.88;;;2.34;78.17
78745;BME280;68064;53.100;8.824;2023-02-28T03:00:40;103243.91;;;2.33;77.93
78745;BME280;68064;53.100;8.824;2023-02-28T03:01:43;103252.41;;;2.34;77.64
78745;BME280;68064;53.100;8.824;2023-02-28T03:02:44;103253.31;;;2.34;78.51
78745;BME280;68064;53.100;8.824;2023-02-28T03:03:50;103257.66;;;2.35;78.36
78745;BME280;68064;53.100;8.824;2023-02-28T03:04:53;103256.56;;;2.33;77.79
78745;BME280;68064;53.100;8.824;2023-02-28T03:06:00;103261.63;;;2.33;78.28
78745;BME280;68064;53.100;8.824;2023-02-28T03:07:02;103255.16;;;2.28;78.35
78745;BME280;68064;53.100;8.824;2023-02-28T03:08:03;103253.00;;;2.24;73.33
78745;BME280;68064;53.100;8.824;2023-02-28T03:09:04;103258.25;;;2.19;72.76
78745;BME280;68064;53.100;8.824;2023-02-28T03:10:34;103253.34;;;2.27;77.02
78745;BME280;68064;53.100;8.824;2023-02-28T03:11:37;103251.16;;;2.30;77.37
78745;BME280;68064;53.100;8.824;2023-02-28T03:12:41;103243.78;;;2.25;77.29
78745;BME280;68064;53.100;8.824;2023-02-28T03:13:54;103254.38;;;2.36;77.42
78745;BME280;68064;53.100;8.824;2023-02-28T03:15:05;103251.34;;;2.32;75.17
78745;BME280;68064;53.100;8.824;2023-02-28T03:16:30;103251.16;;;2.30;77.21
78745;BME280;68064;53.100;8.824;2023-02-28T03:17:46;103244.31;;;2.29;77.90
78745;BME280;68064;53.100;8.824;2023-02-28T03:18:54;103250.28;;;2.30;77.73
78745;BME280;68064;53.100;8.824;2023-02-28T03:20:09;103253.53;;;2.29;77.88
78745;BME280;68064;53.100;8.824;2023-02-28T03:21:23;103253.19;;;2.26;78.27
78745;BME280;68064;53.100;8.824;2023-02-28T03:22:40;103256.25;;;2.23;74.31
78745;BME280;68064;53.100;8.824;2023-02-28T03:23:48;103254.97;;;2.27;76.31
78745;BME280;68064;53.100;8.824;2023-02-28T03:24:58;103263.28;;;2.33;76.82
78745;BME280;68064;53.100;8.824;2023-02-28T03:26:06;103249.38;;;2.29;76.89
78745;BME280;68064;53.100;8.824;2023-02-28T03:27:13;103249.88;;;2.34;76.63
78745;BME280;68064;53.100;8.824;2023-02-28T03:28:22;103256.03;;;2.36;76.76
78745;BME280;68064;53.100;8.824;2023-02-28T03:29:29;103254.78;;;2.32;76.68
78745;BME280;68064;53.100;8.824;2023-02-28T03:30:39;103263.44;;;2.27;76.57
78745;BME280;68064;53.100;8.824;2023-02-28T03:31:45;103264.34;;;2.28;74.26
78745;BME280;68064;53.100;8.824;2023-02-28T03:32:54;103255.88;;;2.27;76.75
78745;BME280;68064;53.100;8.824;2023-02-28T03:34:00;103251.91;;;2.29;75.94
78745;BME280;68064;53.100;8.824;2023-02-28T03:35:07;103258.38;;;2.27;75.88
78745;BME280;68064;53.100;8.824;2023-02-28T03:36:12;103261.09;;;2.29;75.41
78745;BME280;68064;53.100;8.824;2023-02-28T03:37:19;103262.91;;;2.30;76.80
78745;BME280;68064;53.100;8.824;2023-02-28T03:38:27;103267.78;;;2.28;76.31
78745;BME280;68064;53.100;8.824;2023-02-28T03:39:35;103266.53;;;2.25;76.75
78745;BME280;68064;53.100;8.824;2023-02-28T03:40:39;103273.56;;;2.27;77.20
78745;BME280;68064;53.100;8.824;2023-02-28T03:41:50;103259.50;;;2.22;77.13
78745;BME280;68064;53.100;8.824;2023-02-28T03:42:57;103263.84;;;2.23;77.00
78745;BME280;68064;53.100;8.824;2023-02-28T03:44:03;103270.31;;;2.21;76.92
78745;BME280;68064;53.100;8.824;2023-02-28T03:45:11;103262.75;;;2.21;77.81
78745;BME280;68064;53.100;8.824;2023-02-28T03:46:14;103270.31;;;2.21;77.93
78745;BME280;68064;53.100;8.824;2023-02-28T03:47:22;103267.81;;;2.21;76.87
78745;BME280;68064;53.100;8.824;2023-02-28T03:48:30;103266.53;;;2.18;77.51
78745;BME280;68064;53.100;8.824;2023-02-28T03:49:35;103261.13;;;2.14;77.74
78745;BME280;68064;53.100;8.824;2023-02-28T03:50:41;103261.34;;;2.16;77.05
78745;BME280;68064;53.100;8.824;2023-02-28T03:51:46;103264.75;;;2.17;77.59
78745;BME280;68064;53.100;8.824;2023-02-28T03:52:53;103263.50;;;2.13;76.96
78745;BME280;68064;53.100;8.824;2023-02-28T03:54:03;103257.41;;;2.04;75.66
78745;BME280;68064;53.100;8.824;2023-02-28T03:55:10;103262.41;;;2.11;76.44
78745;BME280;68064;53.100;8.824;2023-02-28T03:56:14;103255.94;;;2.13;77.39
78745;BME280;68064;53.100;8.824;2023-02-28T03:57:25;103259.53;;;2.15;76.96
78745;BME280;68064;53.100;8.824;2023-02-28T03:58:32;103260.22;;;2.14;76.70
78745;BME280;68064;53.100;8.824;2023-02-28T03:59:39;103264.41;;;2.13;77.13
78745;BME280;68064;53.100;8.824;2023-02-28T04:00:45;103259.88;;;2.11;76.83
78745;BME280;68064;53.100;8.824;2023-02-28T04:01:48;103267.47;;;2.11;76.57
78745;BME280;68064;53.100;8.824;2023-02-28T04:02:50;103265.13;;;2.05;76.50
78745;BME280;68064;53.100;8.824;2023-02-28T04:03:51;103267.66;;;2.05;77.05
78745;BME280;68064;53.100;8.824;2023-02-28T04:04:52;103265.50;;;2.08;76.96
78745;BME280;68064;53.100;8.824;2023-02-28T04:05:54;103268.38;;;2.04;76.56
78745;BME280;68064;53.100;8.824;2023-02-28T04:07:02;103272.91;;;2.07;77.27
78745;BME280;68064;53.100;8.824;2023-02-28T04:08:06;103264.63;;;2.01;76.85
78745;BME280;68064;53.100;8.824;2023-02-28T04:09:09;103268.03;;;2.01;76.92
78745;BME280;68064;53.100;8.824;2023-02-28T04:10:11;103260.84;;;1.97;77.33
78745;BME280;68064;53.100;8.824;2023-02-28T04:11:20;103274.19;;;1.96;76.54
78745;BME280;68064;53.100;8.824;2023-02-28T04:12:22;103256.50;;;1.89;77.21
78745;BME280;68064;53.100;8.824;2023-02-28T04:13:23;103278.34;;;1.96;77.25
78745;BME280;68064;53.100;8.824;2023-02-28T04:14:24;103272.94;;;1.93;76.63
78745;BME280;68064;53.100;8.824;2023-02-28T04:15:25;103269.84;;;1.88;76.85
78745;BME280;68064;53.100;8.824;2023-02-28T04:16:26;103271.50;;;1.88;76.90
78745;BME280;68064;53.100;8.824;2023-02-28T04:17:27;103279.78;;;1.87;77.51
78745;BME280;68064;53.100;8.824;2023-02-28T04:18:29;103277.28;;;1.87;77.07
78745;BME280;68064;53.100;8.824;2023-02-28T04:19:30;103271.31;;;1.79;77.02
78745;BME280;68064;53.100;8.824;2023-02-28T04:20:31;103285.19;;;1.83;77.53
78745;BME280;68064;53.100;8.824;2023-02-28T04:21:35;103283.22;;;1.80;76.95
78745;BME280;68064;53.100;8.824;2023-02-28T04:22:37;103280.50;;;1.79;76.74
78745;BME280;68064;53.100;8.824;2023-02-28T04:23:39;103280.69;;;1.73;77.19
78745;BME280;68064;53.100;8.824;2023-02-28T04:24:40;103279.28;;;1.75;77.17
78745;BME280;68064;53.100;8.824;2023-02-28T04:25:42;103276.91;;;1.77;77.81
78745;BME280;68064;53.100;8.824;2023-02-28T04:26:44;103276.91;;;1.77;77.10
78745;BME280;68064;53.100;8.824;2023-02-28T04:27:45;103271.34;;;1.72;77.49
78745;BME280;68064;53.100;8.824;2023-02-28T04:28:47;103275.84;;;1.75;77.14
78745;BME280;68064;53.100;8.824;2023-02-28T04:29:48;103268.28;;;1.68;76.94
78745;BME280;68064;53.100;8.824;2023-02-28T04:30:54;103284.50;;;1.70;77.39
78745;BME280;68064;53.100;8.824;2023-02-28T04:31:56;103279.44;;;1.70;77.22
78745;BME280;68064;53.100;8.824;2023-02-28T04:32:58;103281.97;;;1.70;76.85
78745;BME280;68064;53.100;8.824;2023-02-28T04:33:59;103270.44;;;1.65;77.11
78745;BME280;68064;53.100;8.824;2023-02-28T04:35:01;103282.72;;;1.69;76.99
78745;BME280;68064;53.100;8.824;2023-02-28T04:36:32;103279.84;;;1.66;77.25
78745;BME280;68064;53.100;8.824;2023-02-28T04:37:33;103278.56;;;1.62;77.31
78745;BME280;68064;53.100;8.824;2023-02-28T04:38:36;103283.41;;;1.60;77.06
78745;BME280;68064;53.100;8.824;2023-02-28T04:39:39;103272.97;;;1.57;77.86
78745;BME280;68064;53.100;8.824;2023-02-28T04:40:41;103276.19;;;1.56;77.98
78745;BME280;68064;53.100;8.824;2023-02-28T04:41:42;103283.97;;;1.58;77.53
78745;BME280;68064;53.100;8.824;2023-02-28T04:42:43;103284.69;;;1.57;77.94
78745;BME280;68064;53.100;8.824;2023-02-28T04:43:44;103281.09;;;1.55;77.70
78745;BME280;68064;53.100;8.824;2023-02-28T04:44:46;103286.28;;;1.56;77.84
78745;BME280;68064;53.100;8.824;2023-02-28T04:45:47;103287.03;;;1.55;77.34
78745;BME280;68064;53.100;8.824;2023-02-28T04:46:48;103287.22;;;1.50;77.85
78745;BME280;68064;53.100;8.824;2023-02-28T04:47:53;103278.38;;;1.53;77.88
78745;BME280;68064;53.100;8.824;2023-02-28T04:48:54;103277.50;;;1.53;78.00
78745;BME280;68064;53.100;8.824;2023-02-28T04:49:56;103273.31;;;1.53;77.95
78745;BME280;68064;53.100;8.824;2023-02-28T04:51:00;103275.84;;;1.53;77.96
78745;BME280;68064;53.100;8.824;2023-02-28T04:52:01;103263.25;;;1.46;77.64
78745;BME280;68064;53.100;8.824;2023-02-28T04:53:02;103277.50;;;1.53;77.65
78745;BME280;68064;53.100;8.824;2023-02-28T04:54:04;103274.06;;;1.52;78.32
78745;BME280;68064;53.100;8.824;2023-02-28T04:55:07;103277.13;;;1.50;77.92
78745;BME280;68064;53.100;8.824;2023-02-28T04:56:11;103277.66;;;1.47;77.87
78745;BME280;68064;53.100;8.824;2023-02-28T04:57:13;103280.16;;;1.47;77.67
78745;BME280;68064;53.100;8.824;2023-02-28T04:58:14;103277.66;;;1.47;78.10
78745;BME280;68064;53.100;8.824;2023-02-28T04:59:15;103281.97;;;1.48;78.10
78745;BME280;68064;53.100;8.824;2023-02-28T05:00:17;103286.84;;;1.47;77.98
78745;BME280;68064;53.100;8.824;2023-02-28T05:01:21;103282.53;;;1.46;77.94
78745;BME280;68064;53.100;8.824;2023-02-28T05:02:23;103283.25;;;1.45;77.90
78745;BME280;68064;53.100;8.824;2023-02-28T05:03:24;103281.44;;;1.44;78.24
78745;BME280;68064;53.100;8.824;2023-02-28T05:04:25;103276.22;;;1.42;77.27
78745;BME280;68064;53.100;8.824;2023-02-28T05:05:29;103280.19;;;1.40;78.00
78745;BME280;68064;53.100;8.824;2023-02-28T05:06:32;103280.56;;;1.43;78.14
78745;BME280;68064;53.100;8.824;2023-02-28T05:07:34;103283.78;;;1.42;77.57
78745;BME280;68064;53.100;8.824;2023-02-28T05:08:35;103283.78;;;1.42;77.70
78745;BME280;68064;53.100;8.824;2023-02-28T05:09:36;103284.34;;;1.40;78.03
78745;BME280;68064;53.100;8.824;2023-02-28T05:10:38;103284.84;;;1.37;77.93
78745;BME280;68064;53.100;8.824;2023-02-28T05:11:42;103280.53;;;1.36;77.64
78745;BME280;68064;53.100;8.824;2023-02-28T05:12:45;103275.69;;;1.31;77.65
78745;BME280;68064;53.100;8.824;2023-02-28T05:13:47;103275.13;;;1.33;78.26
78745;BME280;68064;53.100;8.824;2023-02-28T05:14:49;103275.69;;;1.31;77.94
78745;BME280;68064;53.100;8.824;2023-02-28T05:15:49;103276.56;;;1.31;78.17
78745;BME280;68064;53.100;8.824;2023-02-28T05:16:51;103283.25;;;1.31;77.76
78745;BME280;68064;53.100;8.824;2023-02-28T05:17:57;103272.59;;;1.26;77.70
78745;BME280;68064;53.100;8.824;2023-02-28T05:18:58;103281.44;;;1.30;77.41
78745;BME280;68064;53.100;8.824;2023-02-28T05:20:02;103281.97;;;1.27;77.73
78745;BME280;68064;53.100;8.824;2023-02-28T05:21:04;103281.78;;;1.26;77.68
78745;BME280;68064;53.100;8.824;2023-02-28T05:22:13;103275.84;;;1.25;77.56
78745;BME280;68064;53.100;8.824;2023-02-28T05:23:22;103285.56;;;1.22;77.65
78745;BME280;68064;53.100;8.824;2023-02-28T05:24:23;103277.28;;;1.16;77.58
78745;BME280;68064;53.100;8.824;2023-02-28T05:25:27;103279.78;;;1.16;77.80
78745;BME280;68064;53.100;8.824;2023-02-28T05:26:30;103283.03;;;1.15;77.65
78745;BME280;68064;53.100;8.824;2023-02-28T05:27:32;103285.38;;;1.14;77.70
78745;BME280;68064;53.100;8.824;2023-02-28T05:28:33;103289.88;;;1.16;77.79
78745;BME280;68064;53.100;8.824;2023-02-28T05:29:34;103284.47;;;1.13;77.70
78745;BME280;68064;53.100;8.824;2023-02-28T05:30:36;103277.25;;;1.09;78.06
78745;BME280;68064;53.100;8.824;2023-02-28T05:31:37;103289.16;;;1.10;77.45
78745;BME280;68064;53.100;8.824;2023-02-28T05:32:40;103285.56;;;1.08;78.19
78745;BME280;68064;53.100;8.824;2023-02-28T05:33:50;103276.88;;;0.99;77.64
78745;BME280;68064;53.100;8.824;2023-02-28T05:34:51;103275.44;;;0.94;77.45
78745;BME280;68064;53.100;8.824;2023-02-28T05:35:53;103275.44;;;0.94;78.07
78745;BME280;68064;53.100;8.824;2023-02-28T05:36:54;103291.50;;;1.01;77.56
78745;BME280;68064;53.100;8.824;2023-02-28T05:37:56;103272.53;;;0.91;78.06
78745;BME280;68064;53.100;8.824;2023-02-28T05:38:57;103288.94;;;0.94;77.50
78745;BME280;68064;53.100;8.824;2023-02-28T05:39:58;103292.72;;;0.91;77.85
78745;BME280;68064;53.100;8.824;2023-02-28T05:40:59;103290.00;;;0.89;77.90
78745;BME280;68064;53.100;8.824;2023-02-28T05:42:02;103285.50;;;0.87;77.30
78745;BME280;68064;53.100;8.824;2023-02-28T05:43:03;103286.75;;;0.83;77.38
78745;BME280;68064;53.100;8.824;2023-02-28T05:44:04;103286.75;;;0.83;77.49